Time;durP1;ratioP1;P1;durP2;ratioP2;P2;SDS_P1;SDS_P2;PMS_P1;PMS_P2;Temp;Humidity;BMP_temperature;BMP_pressure;BME280_temperature;BME280_humidity;BME280_pressure;Samples;Min_cycle;Max_cycle;Signal;HPM_P1;HPM_P2
2022/04/16 00:01:21;;;;;;;20.52;11.20;;;12.50;99.90;;;;;;5006655;28;20061;-64
2022/04/16 00:03:47;;;;;;;26.58;12.43;;;12.50;99.90;;;;;;5006654;28;20500;-64
2022/04/16 00:06:12;;;;;;;20.83;11.30;;;12.60;99.90;;;;;;5008790;28;20034;-64
2022/04/16 00:08:38;;;;;;;21.17;11.35;;;12.50;99.90;;;;;;5009534;28;20033;-64
2022/04/16 00:11:06;;;;;;;18.88;10.45;;;12.40;99.90;;;;;;5009928;28;20026;-64
2022/04/16 00:13:32;;;;;;;22.17;12.10;;;12.40;99.90;;;;;;5009879;28;20029;-64
2022/04/16 00:15:58;;;;;;;22.23;11.90;;;12.40;99.90;;;;;;5009886;28;20040;-64
2022/04/16 00:18:25;;;;;;;22.70;11.93;;;12.40;99.90;;;;;;5008696;28;20034;-64
2022/04/16 00:20:51;;;;;;;25.13;11.93;;;12.50;99.90;;;;;;5009904;28;20045;-64
2022/04/16 00:23:21;;;;;;;20.02;10.93;;;12.50;99.90;;;;;;5027465;28;20071;-64
2022/04/16 00:25:48;;;;;;;20.60;11.27;;;12.40;99.90;;;;;;5029384;28;20546;-64
2022/04/16 00:28:13;;;;;;;22.40;10.75;;;12.40;99.90;;;;;;5029472;28;20018;-64
2022/04/16 00:30:39;;;;;;;22.23;11.77;;;12.40;99.90;;;;;;5029090;28;20038;-64
2022/04/16 00:33:12;;;;;;;26.65;12.93;;;12.50;99.90;;;;;;5029403;28;20047;-64
2022/04/16 00:35:39;;;;;;;20.45;11.55;;;12.40;99.90;;;;;;5029758;28;20026;-64
2022/04/16 00:38:05;;;;;;;26.80;13.32;;;12.40;99.90;;;;;;5029208;28;20496;-64
2022/04/16 00:40:31;;;;;;;22.38;12.75;;;12.30;99.90;;;;;;5029278;28;20130;-64
2022/04/16 00:42:58;;;;;;;21.55;11.48;;;12.30;99.90;;;;;;5029317;28;20102;-64
2022/04/16 00:45:25;;;;;;;26.95;11.85;;;12.30;99.90;;;;;;5029179;28;20362;-64
2022/04/16 00:47:50;;;;;;;22.58;12.30;;;12.20;99.90;;;;;;5029651;28;20032;-64
2022/04/16 00:50:16;;;;;;;21.25;11.18;;;12.20;99.90;;;;;;5029072;28;20383;-65
2022/04/16 00:52:44;;;;;;;18.73;10.95;;;12.10;99.90;;;;;;5029103;28;20064;-64
2022/04/16 00:55:10;;;;;;;28.40;12.07;;;12.00;99.90;;;;;;5030817;28;20052;-64
2022/04/16 00:57:41;;;;;;;24.38;12.30;;;11.90;99.90;;;;;;5032949;28;20025;-64
2022/04/16 01:00:09;;;;;;;23.55;11.52;;;11.80;99.90;;;;;;5032612;28;20034;-65
2022/04/16 01:02:38;;;;;;;27.80;12.65;;;11.60;99.90;;;;;;5030713;28;20034;-64
2022/04/16 01:05:05;;;;;;;26.58;13.15;;;11.50;99.90;;;;;;5029783;28;20053;-65
2022/04/16 01:07:31;;;;;;;20.80;11.57;;;11.30;99.90;;;;;;5031160;28;20076;-64
2022/04/16 01:09:57;;;;;;;20.77;11.63;;;11.20;99.90;;;;;;5032393;28;20060;-64
2022/04/16 01:12:23;;;;;;;26.17;11.75;;;11.10;99.90;;;;;;5029015;28;20096;-64
2022/04/16 01:14:50;;;;;;;24.25;11.65;;;11.10;99.90;;;;;;5032595;28;20029;-63
2022/04/16 01:17:17;;;;;;;29.55;13.73;;;11.00;99.90;;;;;;5032386;28;20014;-64
2022/04/16 01:19:43;;;;;;;26.38;13.10;;;11.00;99.90;;;;;;5032434;28;20033;-63
2022/04/16 01:22:12;;;;;;;26.92;12.93;;;10.90;99.90;;;;;;5023695;28;20030;-64
2022/04/16 01:24:38;;;;;;;29.83;14.00;;;10.90;99.90;;;;;;5011964;28;20044;-64
2022/04/16 01:27:04;;;;;;;27.75;13.48;;;10.80;99.90;;;;;;5012284;28;20026;-65
2022/04/16 01:29:30;;;;;;;25.33;12.98;;;10.80;99.90;;;;;;5012194;28;20076;-64
2022/04/16 01:31:56;;;;;;;31.05;14.90;;;10.70;99.90;;;;;;5012240;28;20018;-64
2022/04/16 01:34:21;;;;;;;29.13;13.95;;;10.70;99.90;;;;;;5012759;28;20030;-64
2022/04/16 01:36:47;;;;;;;26.45;13.05;;;10.70;99.90;;;;;;5012117;28;20396;-64
2022/04/16 01:39:13;;;;;;;31.75;14.35;;;10.60;99.90;;;;;;5011783;28;20496;-64
2022/04/16 01:41:40;;;;;;;29.67;14.00;;;10.60;99.90;;;;;;5012048;28;20038;-64
2022/04/16 01:44:07;;;;;;;33.45;15.43;;;10.50;99.90;;;;;;5011879;28;20054;-64
2022/04/16 01:46:33;;;;;;;35.92;16.27;;;10.50;99.90;;;;;;5011355;28;20523;-64
2022/04/16 01:48:58;;;;;;;35.13;14.88;;;10.40;99.90;;;;;;5009874;28;20040;-64
2022/04/16 01:51:24;;;;;;;34.08;16.23;;;10.40;99.90;;;;;;5022404;28;20037;-64
2022/04/16 01:53:50;;;;;;;36.42;16.15;;;10.40;99.90;;;;;;5028320;28;20036;-64
2022/04/16 01:56:16;;;;;;;33.22;15.98;;;10.40;99.90;;;;;;5028322;28;20030;-64
2022/04/16 01:58:43;;;;;;;36.33;15.98;;;10.40;99.90;;;;;;5028311;28;20025;-64
2022/04/16 02:01:10;;;;;;;35.97;16.50;;;10.30;99.90;;;;;;5028213;28;20038;-65
2022/04/16 02:03:36;;;;;;;35.30;16.90;;;10.30;99.90;;;;;;5028586;28;20025;-64
2022/04/16 02:06:05;;;;;;;40.45;17.65;;;10.30;99.90;;;;;;5031063;28;20021;-64
2022/04/16 02:08:31;;;;;;;37.58;16.88;;;10.30;99.90;;;;;;5031204;28;20481;-64
2022/04/16 02:10:57;;;;;;;33.38;15.52;;;10.20;99.90;;;;;;5031239;28;20048;-64
2022/04/16 02:13:23;;;;;;;35.67;15.77;;;10.20;99.90;;;;;;5031291;28;20110;-64
2022/04/16 02:15:48;;;;;;;31.92;14.45;;;10.10;99.90;;;;;;5031054;28;20500;-64
2022/04/16 02:18:14;;;;;;;31.88;15.13;;;10.10;99.90;;;;;;5031012;28;20029;-65
2022/04/16 02:20:43;;;;;;;35.55;16.33;;;10.00;99.90;;;;;;5028172;28;20462;-64
2022/04/16 02:23:10;;;;;;;37.40;16.92;;;10.00;99.90;;;;;;5027672;28;20029;-64
2022/04/16 02:25:36;;;;;;;35.90;16.42;;;9.90;99.90;;;;;;5027514;28;20469;-64
2022/04/16 02:28:01;;;;;;;38.42;16.27;;;9.90;99.90;;;;;;5027813;28;20508;-64
2022/04/16 02:30:30;;;;;;;44.08;18.58;;;9.90;99.90;;;;;;5030722;28;20033;-64
2022/04/16 02:32:56;;;;;;;42.55;18.73;;;9.80;99.90;;;;;;5030843;28;20396;-64
2022/04/16 02:35:22;;;;;;;40.42;18.92;;;9.80;99.90;;;;;;5030771;28;20108;-64
2022/04/16 02:37:48;;;;;;;32.75;15.70;;;9.80;99.90;;;;;;5030405;28;20049;-64
2022/04/16 02:40:15;;;;;;;35.33;15.43;;;9.80;99.90;;;;;;5030653;28;20088;-64
2022/04/16 02:42:43;;;;;;;34.85;15.93;;;9.70;99.90;;;;;;5030876;28;20079;-64
2022/04/16 02:47:56;;;;;;;37.38;16.77;;;9.60;99.90;;;;;;5030745;28;20117;-64
2022/04/16 02:50:25;;;;;;;33.78;16.13;;;9.50;99.90;;;;;;5030645;28;20550;-64
2022/04/16 02:52:54;;;;;;;30.70;14.90;;;9.50;99.90;;;;;;5030269;28;20025;-64
2022/04/16 02:55:20;;;;;;;23.75;12.90;;;9.40;99.90;;;;;;5030530;28;20029;-64
2022/04/16 02:57:46;;;;;;;30.48;13.80;;;9.30;99.90;;;;;;5030332;28;20017;-64
2022/04/16 03:00:13;;;;;;;33.53;15.23;;;9.10;99.90;;;;;;5030132;28;20056;-64
2022/04/16 03:02:40;;;;;;;34.53;14.52;;;9.00;99.90;;;;;;5030227;28;20037;-64
2022/04/16 03:05:08;;;;;;;32.60;15.95;;;8.90;99.90;;;;;;5030284;28;20416;-64
2022/04/16 03:07:35;;;;;;;34.67;14.65;;;8.90;99.90;;;;;;5030527;28;20029;-64
2022/04/16 03:10:02;;;;;;;31.85;15.90;;;8.80;99.90;;;;;;5030248;28;20025;-64
2022/04/16 03:12:28;;;;;;;33.67;17.05;;;8.80;99.90;;;;;;5030059;28;20032;-64
2022/04/16 03:17:39;;;;;;;35.67;16.45;;;8.70;99.90;;;;;;5026006;28;20043;-64
2022/04/16 03:20:06;;;;;;;35.50;15.57;;;8.70;99.90;;;;;;5030120;28;20505;-65
2022/04/16 03:22:36;;;;;;;35.58;16.42;;;8.70;99.90;;;;;;5018557;28;20021;-64
2022/04/16 03:25:09;;;;;;;33.58;14.90;;;8.70;99.90;;;;;;5010295;28;20064;-64
2022/04/16 03:27:36;;;;;;;36.08;15.98;;;8.70;99.90;;;;;;5010563;28;20359;-64
2022/04/16 03:30:03;;;;;;;37.13;17.27;;;8.60;99.90;;;;;;5010215;28;20560;-64
2022/04/16 03:32:30;;;;;;;41.90;18.27;;;8.60;99.90;;;;;;5010106;28;20026;-64
2022/04/16 03:34:56;;;;;;;41.33;18.45;;;8.60;99.90;;;;;;5010044;28;20076;-64
2022/04/16 03:37:24;;;;;;;39.17;17.05;;;8.60;99.90;;;;;;5010114;28;20497;-64
2022/04/16 03:39:51;;;;;;;40.78;19.38;;;8.60;99.90;;;;;;5009660;28;20490;-64
2022/04/16 03:42:18;;;;;;;38.97;17.02;;;8.70;99.90;;;;;;5010087;28;20103;-64
2022/04/16 03:44:44;;;;;;;39.17;17.58;;;8.70;99.90;;;;;;5010004;28;20033;-64
2022/04/16 03:47:10;;;;;;;41.25;17.27;;;8.70;99.90;;;;;;5010102;28;20029;-64
2022/04/16 03:49:37;;;;;;;36.20;16.35;;;8.60;99.90;;;;;;5010202;28;20026;-64
2022/04/16 03:52:04;;;;;;;37.90;15.82;;;8.60;99.90;;;;;;5010020;28;20081;-64
2022/04/16 04:00:01;;;;;;;33.17;15.02;;;8.50;99.90;;;;;;5010043;28;20044;-64
2022/04/16 04:02:31;;;;;;;36.70;16.42;;;8.50;99.90;;;;;;5009739;28;20504;-64
2022/04/16 04:04:57;;;;;;;42.63;16.13;;;8.50;99.90;;;;;;5010475;28;20836;-64
2022/04/16 04:07:23;;;;;;;26.05;14.15;;;8.50;99.90;;;;;;5019986;28;20033;-64
2022/04/16 04:09:49;;;;;;;36.42;15.50;;;8.50;99.90;;;;;;5029335;28;20029;-64
2022/04/16 04:12:15;;;;;;;36.67;16.27;;;8.40;99.90;;;;;;5029565;28;20025;-64
2022/04/16 04:14:43;;;;;;;34.65;14.93;;;8.30;99.90;;;;;;5029793;28;20037;-64
2022/04/16 04:17:10;;;;;;;33.97;16.35;;;8.20;99.90;;;;;;5026664;28;20071;-64
2022/04/16 04:19:38;;;;;;;40.15;17.23;;;8.20;99.90;;;;;;5026167;28;20491;-64
2022/04/16 04:22:05;;;;;;;38.22;15.55;;;8.20;99.90;;;;;;5028577;28;20086;-64
2022/04/16 04:24:31;;;;;;;38.28;16.20;;;8.20;99.90;;;;;;5028929;28;20372;-64
2022/04/16 04:26:58;;;;;;;36.85;17.17;;;8.10;99.90;;;;;;5029804;28;20029;-64
2022/04/16 04:29:23;;;;;;;39.92;17.17;;;8.10;99.90;;;;;;5031141;28;20264;-63
2022/04/16 04:31:49;;;;;;;40.85;16.77;;;8.10;99.90;;;;;;5030795;28;20376;-64
2022/04/16 04:34:15;;;;;;;35.17;18.45;;;8.10;99.90;;;;;;5030027;28;20413;-64
2022/04/16 04:36:40;;;;;;;34.88;17.25;;;8.00;99.90;;;;;;5030141;28;20036;-63
2022/04/16 04:39:06;;;;;;;37.63;16.88;;;7.90;99.90;;;;;;5031407;28;20395;-64
2022/04/16 04:41:32;;;;;;;34.88;15.82;;;7.80;99.90;;;;;;5033004;28;20049;-64
2022/04/16 04:43:57;;;;;;;35.63;15.55;;;7.80;99.90;;;;;;5032841;28;20025;-64
2022/04/16 04:46:23;;;;;;;38.20;16.70;;;7.80;99.90;;;;;;5033037;28;20032;-64
2022/04/16 04:48:49;;;;;;;37.10;16.05;;;7.70;99.90;;;;;;5033169;28;20028;-64
2022/04/16 04:51:14;;;;;;;34.47;15.70;;;7.70;99.90;;;;;;5032710;28;20423;-64
2022/04/16 04:53:40;;;;;;;35.30;14.20;;;7.60;99.90;;;;;;5032574;28;20545;-64
2022/04/16 04:56:05;;;;;;;38.53;15.80;;;7.60;99.90;;;;;;5032608;28;20021;-64
2022/04/16 04:58:31;;;;;;;39.83;15.65;;;7.50;99.90;;;;;;5032719;28;20037;-64
2022/04/16 05:00:57;;;;;;;40.15;17.33;;;7.40;99.90;;;;;;5031177;28;20071;-63
2022/04/16 05:03:23;;;;;;;43.47;18.52;;;7.40;99.90;;;;;;5029672;28;20027;-64
2022/04/16 05:05:49;;;;;;;45.33;19.67;;;7.40;99.90;;;;;;5029313;28;20499;-64
2022/04/16 05:08:15;;;;;;;45.65;19.55;;;7.40;99.90;;;;;;5031478;28;20021;-64
2022/04/16 05:10:41;;;;;;;47.25;18.73;;;7.50;99.90;;;;;;5032577;28;20025;-64
2022/04/16 05:13:06;;;;;;;48.97;19.88;;;7.50;99.90;;;;;;5029032;28;20105;-64
2022/04/16 05:15:32;;;;;;;55.63;20.55;;;7.50;99.90;;;;;;5032406;28;20025;-64
2022/04/16 05:17:58;;;;;;;50.60;19.60;;;7.60;99.90;;;;;;5032184;28;20030;-64
2022/04/16 05:20:24;;;;;;;52.33;20.60;;;7.70;99.90;;;;;;5031443;28;20064;-64
2022/04/16 05:22:49;;;;;;;58.08;21.30;;;7.70;99.90;;;;;;5014902;28;20026;-64
2022/04/16 05:25:15;;;;;;;51.90;19.83;;;7.80;99.90;;;;;;5009306;28;20045;-64
2022/04/16 05:27:41;;;;;;;45.03;18.73;;;7.80;99.90;;;;;;5008979;28;20025;-64
2022/04/16 05:30:12;;;;;;;42.42;18.60;;;7.80;99.90;;;;;;5009130;28;20086;-64
2022/04/16 05:32:40;;;;;;;37.33;16.42;;;7.80;99.90;;;;;;5008896;28;20030;-63
2022/04/16 05:35:07;;;;;;;40.20;18.45;;;7.90;99.90;;;;;;5009332;28;20083;-64
2022/04/16 05:37:34;;;;;;;52.30;20.50;;;7.90;99.90;;;;;;5008776;28;20026;-64
2022/04/16 05:40:01;;;;;;;60.60;20.67;;;7.90;99.90;;;;;;5008525;28;20106;-64
2022/04/16 05:42:26;;;;;;;63.60;21.33;;;7.90;99.90;;;;;;5008475;28;20109;-64
2022/04/16 05:44:52;;;;;;;63.78;22.92;;;8.00;99.90;;;;;;5008835;28;20170;-64
2022/04/16 05:47:18;;;;;;;55.20;23.20;;;8.10;99.90;;;;;;5010670;28;20026;-64
2022/04/16 05:49:43;;;;;;;60.15;24.10;;;8.20;99.90;;;;;;5011738;28;20410;-64
2022/04/16 05:52:09;;;;;;;60.72;22.77;;;8.30;99.90;;;;;;5011645;28;20026;-64
2022/04/16 05:54:38;;;;;;;66.97;24.40;;;8.40;99.90;;;;;;5011466;28;20072;-65
2022/04/16 05:57:06;;;;;;;68.13;26.23;;;8.50;99.90;;;;;;5011497;28;20026;-65
2022/04/16 05:59:31;;;;;;;66.18;26.52;;;8.60;99.90;;;;;;5011769;28;20036;-65
2022/04/16 06:01:57;;;;;;;60.83;24.98;;;8.70;99.90;;;;;;5008963;28;20029;-65
2022/04/16 06:04:23;;;;;;;72.28;26.65;;;8.90;99.90;;;;;;5008309;28;20022;-65
2022/04/16 06:06:49;;;;;;;68.15;25.25;;;9.00;99.90;;;;;;5012070;28;20022;-65
2022/04/16 06:09:14;;;;;;;68.38;26.02;;;9.00;99.90;;;;;;5012003;28;20061;-64
2022/04/16 06:11:42;;;;;;;59.15;24.67;;;9.10;99.90;;;;;;5011662;28;20111;-64
2022/04/16 06:14:08;;;;;;;61.60;25.00;;;9.20;99.90;;;;;;5011402;28;20420;-66
2022/04/16 06:16:33;;;;;;;66.03;25.20;;;9.30;99.90;;;;;;5011200;28;20649;-64
2022/04/16 06:18:59;;;;;;;71.47;25.88;;;9.40;99.90;;;;;;5011425;28;20065;-64
2022/04/16 06:21:25;;;;;;;65.90;24.55;;;9.40;99.90;;;;;;5011111;28;20060;-65
2022/04/16 06:23:51;;;;;;;57.47;24.02;;;9.40;99.90;;;;;;5009269;28;20574;-65
2022/04/16 06:26:17;;;;;;;66.90;24.90;;;9.50;99.90;;;;;;5008047;28;20369;-65
2022/04/16 06:28:43;;;;;;;65.13;24.80;;;9.50;99.90;;;;;;5008627;28;20080;-65
2022/04/16 06:31:08;;;;;;;63.85;24.25;;;9.60;99.90;;;;;;5010192;28;20369;-65
2022/04/16 06:33:34;;;;;;;50.80;22.55;;;9.70;99.90;;;;;;5007846;28;20424;-65
2022/04/16 06:36:00;;;;;;;63.00;24.45;;;9.80;99.90;;;;;;5008566;28;20512;-64
2022/04/16 06:38:29;;;;;;;65.65;25.73;;;9.90;99.90;;;;;;5011005;28;20083;-65
2022/04/16 06:40:55;;;;;;;65.07;24.58;;;10.00;99.90;;;;;;5010781;28;20543;-65
2022/04/16 06:43:20;;;;;;;58.40;24.02;;;10.10;99.90;;;;;;5010844;28;20029;-64
2022/04/16 06:45:46;;;;;;;59.58;22.65;;;10.20;99.90;;;;;;5010620;28;20026;-65
2022/04/16 06:48:12;;;;;;;54.28;23.92;;;10.30;99.90;;;;;;5010623;28;20097;-65
2022/04/16 06:50:37;;;;;;;65.20;26.25;;;10.50;99.90;;;;;;5010751;28;20037;-65
2022/04/16 06:53:03;;;;;;;64.95;26.63;;;10.60;99.90;;;;;;5009598;28;20018;-65
2022/04/16 06:55:28;;;;;;;56.08;24.40;;;10.60;99.90;;;;;;5010849;28;20099;-65
2022/04/16 06:57:54;;;;;;;65.15;26.13;;;10.80;99.90;;;;;;5010626;28;20037;-65
2022/04/16 07:00:20;;;;;;;52.03;22.48;;;11.20;99.90;;;;;;5010455;28;20034;-65
2022/04/16 07:02:45;;;;;;;51.50;23.13;;;11.60;99.90;;;;;;5007592;28;20026;-65
2022/04/16 07:05:11;;;;;;;45.72;21.60;;;12.00;99.90;;;;;;5016693;28;20033;-65
2022/04/16 07:07:37;;;;;;;44.90;23.13;;;12.70;99.90;;;;;;5028893;28;20029;-65
2022/04/16 07:10:03;;;;;;;46.28;22.15;;;13.40;99.90;;;;;;5029962;28;20048;-65
2022/04/16 07:12:28;;;;;;;48.05;20.48;;;14.20;99.90;;;;;;5030179;28;20029;-65
2022/04/16 07:14:55;;;;;;;48.20;21.75;;;14.70;99.90;;;;;;5029975;28;20017;-65
2022/04/16 07:17:20;;;;;;;40.55;21.45;;;15.20;96.80;;;;;;5029951;28;20017;-65
2022/04/16 07:19:46;;;;;;;42.65;21.92;;;15.40;95.60;;;;;;5029982;28;20025;-65
2022/04/16 07:22:11;;;;;;;41.65;22.10;;;15.70;94.90;;;;;;5021359;28;20038;-65
2022/04/16 07:24:38;;;;;;;38.53;20.55;;;15.90;95.00;;;;;;5009940;28;20053;-65
2022/04/16 07:27:05;;;;;;;41.42;22.67;;;16.30;94.90;;;;;;5010136;28;20113;-65
2022/04/16 07:29:31;;;;;;;46.92;24.10;;;16.60;94.00;;;;;;5010138;28;20050;-65
2022/04/16 07:31:57;;;;;;;43.08;24.50;;;16.80;92.30;;;;;;5009977;28;20088;-65
2022/04/16 07:34:23;;;;;;;43.67;23.85;;;17.10;91.40;;;;;;5010124;28;20030;-65
2022/04/16 07:36:48;;;;;;;41.10;24.33;;;17.30;88.20;;;;;;5010634;28;20030;-65
2022/04/16 07:39:14;;;;;;;44.50;24.50;;;16.80;86.70;;;;;;5009685;28;20116;-65
2022/04/16 07:41:40;;;;;;;45.55;24.90;;;17.20;86.70;;;;;;5009957;28;20042;-65
2022/04/16 07:44:06;;;;;;;48.47;27.45;;;17.80;83.70;;;;;;5009906;28;20026;-65
2022/04/16 07:46:34;;;;;;;45.70;26.42;;;18.40;78.90;;;;;;5009778;28;20433;-66
2022/04/16 07:49:01;;;;;;;46.10;25.73;;;18.60;77.50;;;;;;5010006;28;20041;-66
2022/04/16 07:51:27;;;;;;;41.25;25.50;;;18.80;76.60;;;;;;5009868;28;20072;-65
2022/04/16 07:53:53;;;;;;;44.50;25.58;;;19.10;76.40;;;;;;5009739;28;20038;-66
2022/04/16 07:56:19;;;;;;;47.05;27.10;;;19.00;72.80;;;;;;5009908;28;20099;-66
2022/04/16 07:58:45;;;;;;;39.63;25.42;;;19.40;69.30;;;;;;5009693;28;20457;-66
2022/04/16 08:01:11;;;;;;;44.78;26.65;;;19.80;69.80;;;;;;5009723;28;20073;-66
2022/04/16 08:03:38;;;;;;;43.20;26.45;;;20.20;61.90;;;;;;5010240;28;20037;-66
2022/04/16 08:06:03;;;;;;;47.22;27.35;;;20.10;62.10;;;;;;5013603;28;20462;-66
2022/04/16 08:08:29;;;;;;;46.53;27.73;;;20.60;59.20;;;;;;5015790;28;20049;-66
2022/04/16 08:10:56;;;;;;;45.42;28.75;;;20.70;57.80;;;;;;5013717;28;20108;-66
2022/04/16 08:13:22;;;;;;;43.90;28.25;;;21.00;55.60;;;;;;5013635;28;20477;-66
2022/04/16 08:15:48;;;;;;;43.05;29.23;;;21.20;56.00;;;;;;5013736;28;20101;-66
2022/04/16 08:18:14;;;;;;;47.38;31.25;;;21.50;52.30;;;;;;5019764;28;20037;-67
2022/04/16 08:20:40;;;;;;;46.35;29.02;;;21.50;50.90;;;;;;5014455;28;20121;-69
2022/04/16 08:23:07;;;;;;;42.15;27.35;;;21.60;51.90;;;;;;5021280;28;20161;-66
2022/04/16 08:28:04;;;;;;;47.33;29.93;;;22.30;48.70;;;;;;5028713;28;20044;-65
2022/04/16 08:30:30;;;;;;;43.80;31.02;;;22.80;46.50;;;;;;5030044;28;20029;-65
2022/04/16 08:32:56;;;;;;;43.45;30.33;;;23.20;41.60;;;;;;5030166;28;20056;-65
2022/04/16 08:35:22;;;;;;;45.00;27.90;;;23.20;42.40;;;;;;5029790;28;20037;-65
2022/04/16 08:37:49;;;;;;;42.08;28.70;;;23.40;41.90;;;;;;5029759;28;20026;-65
2022/04/16 08:40:16;;;;;;;39.17;26.13;;;23.80;40.10;;;;;;5029656;28;20045;-65
2022/04/16 08:42:44;;;;;;;40.95;28.33;;;24.20;37.40;;;;;;5029670;28;20103;-65
2022/04/16 08:45:12;;;;;;;42.22;28.83;;;24.50;35.80;;;;;;5029721;28;20026;-66
2022/04/16 08:47:38;;;;;;;46.30;28.83;;;25.00;32.20;;;;;;5029126;28;20408;-65
2022/04/16 08:50:06;;;;;;;43.33;27.75;;;25.40;30.60;;;;;;5028638;28;20552;-65
2022/04/16 08:52:33;;;;;;;48.35;29.75;;;25.40;28.20;;;;;;5017913;28;20481;-65
2022/04/16 08:55:00;;;;;;;45.88;29.67;;;25.80;28.50;;;;;;5009264;28;20537;-66
2022/04/16 08:57:26;;;;;;;38.67;26.67;;;26.50;27.60;;;;;;5009636;28;20477;-65
2022/04/16 08:59:53;;;;;;;39.95;27.25;;;26.50;25.30;;;;;;5023541;28;20026;-66
2022/04/16 09:02:21;;;;;;;37.38;25.50;;;27.40;24.70;;;;;;5020774;28;20044;-65
2022/04/16 09:04:48;;;;;;;38.00;27.30;;;27.10;23.60;;;;;;5009210;28;20396;-65
2022/04/16 09:07:15;;;;;;;36.45;25.45;;;27.50;23.70;;;;;;5009761;28;20037;-65
2022/04/16 09:09:41;;;;;;;37.67;25.88;;;28.30;22.90;;;;;;5009215;28;20111;-66
2022/04/16 09:12:18;;;;;;;34.47;24.33;;;28.40;23.00;;;;;;5009288;28;20022;-65
2022/04/16 09:14:44;;;;;;;37.95;24.98;;;28.90;21.80;;;;;;5009634;28;20025;-65
2022/04/16 09:17:17;;;;;;;35.33;25.65;;;29.20;22.10;;;;;;5008148;28;20030;-64
2022/04/16 09:19:51;;;;;;;37.13;25.25;;;29.50;21.40;;;;;;5008886;28;20029;-67
2022/04/16 09:22:35;;;;;;;35.20;25.80;;;30.30;20.20;;;;;;5018525;28;20394;-64
2022/04/16 09:25:02;;;;;;;32.10;23.83;;;30.10;19.50;;;;;;5028794;28;20053;-65
2022/04/16 09:27:38;;;;;;;31.15;23.00;;;30.30;19.70;;;;;;5029239;28;20045;-65
2022/04/16 09:30:05;;;;;;;30.02;23.08;;;31.00;19.00;;;;;;5028959;28;20586;-64
2022/04/16 09:32:40;;;;;;;31.77;22.65;;;31.60;17.30;;;;;;5028684;28;20037;-65
2022/04/16 09:35:06;;;;;;;32.53;23.45;;;31.50;17.70;;;;;;5027898;28;20031;-65
2022/04/16 09:37:33;;;;;;;32.30;23.60;;;31.60;17.10;;;;;;5008965;28;20108;-64
2022/04/16 09:40:09;;;;;;;33.25;24.23;;;32.10;17.00;;;;;;5008305;28;20034;-64
2022/04/16 09:42:35;;;;;;;32.95;24.33;;;32.10;17.00;;;;;;5008783;28;20076;-64
2022/04/16 09:45:02;;;;;;;35.08;23.30;;;30.40;17.40;;;;;;5008607;28;20421;-64
2022/04/16 09:47:30;;;;;;;31.90;21.30;;;31.70;17.70;;;;;;5008354;28;20034;-65
2022/04/16 09:49:58;;;;;;;30.40;22.75;;;32.90;16.60;;;;;;5008329;28;20033;-64
2022/04/16 09:52:24;;;;;;;30.02;23.45;;;32.60;15.40;;;;;;5018913;28;20031;-65
2022/04/16 09:54:52;;;;;;;27.65;20.92;;;31.60;15.40;;;;;;5024723;28;20026;-64
2022/04/16 09:57:23;;;;;;;30.50;21.25;;;32.40;16.40;;;;;;5021255;28;20024;-65
2022/04/16 09:59:50;;;;;;;;;;;32.90;15.80;;;;;;5008552;28;20517;-64
2022/04/16 10:02:16;;;;;;;28.35;19.40;;;33.50;15.40;;;;;;5019477;28;19913;-65
2022/04/16 10:04:42;;;;;;;27.80;20.05;;;34.40;14.80;;;;;;5008102;28;20182;-68
2022/04/16 10:07:10;;;;;;;28.00;21.15;;;34.80;13.90;;;;;;5008030;28;20025;-64
2022/04/16 10:09:41;;;;;;;26.60;20.60;;;33.10;13.20;;;;;;5007725;28;20021;-67
2022/04/16 10:15:04;;;;;;;26.13;21.08;;;34.20;13.40;;;;;;5022516;28;20091;-66
2022/04/16 10:17:36;;;;;;;23.23;19.40;;;35.50;12.50;;;;;;5027110;28;20028;-66
2022/04/16 10:20:15;;;;;;;25.48;18.77;;;36.10;13.00;;;;;;5009545;28;20025;-66
2022/04/16 10:22:52;;;;;;;23.33;18.95;;;36.70;12.00;;;;;;5007959;28;20480;-68
2022/04/16 10:25:31;;;;;;;26.88;18.90;;;35.70;12.10;;;;;;5006738;28;20095;-67
2022/04/16 10:28:33;;;;;;;26.77;19.92;;;36.80;11.80;;;;;;5007987;28;20040;-67
2022/04/16 10:30:59;;;;;;;27.27;18.77;;;36.50;10.90;;;;;;4970633;28;20034;-67
2022/04/16 10:33:27;;;;;;;24.70;18.20;;;37.30;11.30;;;;;;5007926;28;20107;-67
2022/04/16 10:36:00;;;;;;;24.92;18.58;;;37.50;10.90;;;;;;5008084;28;20022;-68
2022/04/16 10:38:43;;;;;;;23.52;18.27;;;37.90;10.40;;;;;;5007673;28;20033;-68
2022/04/16 10:41:19;;;;;;;22.98;17.75;;;37.90;10.30;;;;;;5007868;28;20516;-67
2022/04/16 10:43:59;;;;;;;22.83;17.33;;;38.30;10.10;;;;;;5008708;28;20022;-67
2022/04/16 10:46:40;;;;;;;21.67;15.02;;;37.90;10.30;;;;;;5011076;28;20037;-67
2022/04/16 10:49:16;;;;;;;20.17;16.05;;;38.00;8.90;;;;;;5010685;28;20504;-67
2022/04/16 10:51:42;;;;;;;24.50;17.15;;;38.30;9.10;;;;;;5010767;28;20545;-68
2022/04/16 10:54:12;;;;;;;15.00;12.13;;;38.00;10.10;;;;;;5010808;28;20026;-68
2022/04/16 10:56:41;;;;;;;11.02;8.90;;;38.10;8.00;;;;;;5010968;28;20029;-68
2022/04/16 10:59:11;;;;;;;15.35;12.50;;;39.40;8.40;;;;;;5013364;28;20111;-67
2022/04/16 11:01:37;;;;;;;16.48;12.13;;;39.30;8.20;;;;;;5010735;28;20057;-66
2022/04/16 11:04:14;;;;;;;14.48;9.98;;;39.10;8.40;;;;;;5010400;28;20080;-66
2022/04/16 11:06:48;;;;;;;13.85;9.30;;;38.80;8.20;;;;;;5010675;28;20026;-66
2022/04/16 11:09:16;;;;;;;12.13;8.88;;;39.70;8.30;;;;;;5010333;28;20513;-67
2022/04/16 11:11:43;;;;;;;8.82;6.72;;;39.70;7.40;;;;;;5010394;28;20424;-66
2022/04/16 11:14:12;;;;;;;12.35;8.82;;;39.60;6.70;;;;;;5010300;28;20040;-67
2022/04/16 11:16:46;;;;;;;14.30;9.48;;;39.80;6.60;;;;;;5010576;28;20022;-66
2022/04/16 11:19:15;;;;;;;12.48;8.77;;;40.00;7.20;;;;;;5010334;28;20025;-65
2022/04/16 11:21:45;;;;;;;11.73;7.67;;;40.00;6.80;;;;;;5010252;28;20065;-66
2022/04/16 11:24:10;;;;;;;13.57;9.97;;;39.80;6.70;;;;;;5009887;28;20038;-67
2022/04/16 11:34:57;;;;;;;13.25;8.55;;;40.60;6.40;;;;;;5010597;28;20037;-67
2022/04/16 11:37:24;;;;;;;8.88;7.50;;;37.90;6.50;;;;;;5008528;28;20033;-66
2022/04/16 11:40:20;;;;;;;10.85;8.55;;;39.60;6.60;;;;;;5006339;28;20065;-67
2022/04/16 11:42:45;;;;;;;11.45;9.15;;;39.00;6.00;;;;;;4990204;28;20038;-69
2022/04/16 11:45:13;;;;;;;11.70;9.02;;;38.40;7.90;;;;;;5006990;28;20107;-67
2022/04/16 11:47:39;;;;;;;12.50;9.55;;;38.70;7.60;;;;;;5007013;28;20018;-67
2022/04/16 11:50:06;;;;;;;13.18;9.63;;;38.80;6.70;;;;;;5007051;28;20026;-68
2022/04/16 11:52:34;;;;;;;15.23;10.75;;;38.30;7.00;;;;;;5018424;28;20795;-67
2022/04/16 11:55:01;;;;;;;14.10;10.65;;;39.10;7.40;;;;;;5026730;28;20716;-68
2022/04/16 11:57:27;;;;;;;14.70;10.80;;;39.30;6.80;;;;;;5026684;28;20033;-67
2022/04/16 12:00:04;;;;;;;18.77;13.35;;;39.50;7.40;;;;;;5026676;28;20033;-67
2022/04/16 12:02:32;;;;;;;21.27;15.80;;;38.50;7.90;;;;;;5026492;28;20476;-68
2022/04/16 12:05:14;;;;;;;25.70;17.20;;;37.10;7.90;;;;;;5026968;28;20109;-68
2022/04/16 12:07:42;;;;;;;23.45;17.55;;;34.40;9.80;;;;;;5026189;28;20029;-68
2022/04/16 12:10:08;;;;;;;21.13;15.30;;;34.50;10.10;;;;;;5026711;28;20399;-68
2022/04/16 12:12:47;;;;;;;23.20;15.70;;;35.50;9.90;;;;;;5026711;28;20432;-69
2022/04/16 12:15:29;;;;;;;19.38;15.15;;;36.70;9.50;;;;;;5026919;28;20159;-69
2022/04/16 12:17:56;;;;;;;20.23;15.30;;;37.60;9.10;;;;;;5026165;28;20029;-67
2022/04/16 12:20:24;;;;;;;21.33;15.75;;;36.30;8.70;;;;;;5026680;28;20061;-67
2022/04/16 12:22:59;;;;;;;20.50;15.00;;;35.10;8.40;;;;;;5026385;28;20032;-67
2022/04/16 12:25:25;;;;;;;21.52;15.77;;;34.90;10.70;;;;;;5026309;28;20057;-68
2022/04/16 12:27:53;;;;;;;23.00;16.80;;;37.00;9.90;;;;;;5018342;28;20024;-68
2022/04/16 12:30:20;;;;;;;23.27;16.45;;;36.40;8.50;;;;;;5006747;28;20057;-67
2022/04/16 12:33:02;;;;;;;24.27;17.25;;;35.10;10.00;;;;;;5006432;28;20018;-67
2022/04/16 12:35:30;;;;;;;21.70;15.50;;;36.50;8.80;;;;;;5006696;28;20134;-68
2022/04/16 12:37:57;;;;;;;18.25;14.43;;;36.60;9.50;;;;;;5006602;28;20036;-68
2022/04/16 12:40:24;;;;;;;21.42;16.92;;;37.60;9.40;;;;;;5006478;28;20120;-67
2022/04/16 12:42:52;;;;;;;20.73;15.65;;;38.30;8.20;;;;;;5006415;28;20062;-67
2022/04/16 12:45:18;;;;;;;23.55;16.35;;;38.20;9.10;;;;;;5006512;28;20160;-68
2022/04/16 12:47:44;;;;;;;19.33;14.63;;;36.70;8.50;;;;;;5006356;28;20508;-68
2022/04/16 12:50:11;;;;;;;18.90;13.93;;;36.00;9.10;;;;;;5007623;28;20030;-67
2022/04/16 12:52:37;;;;;;;18.30;14.30;;;36.30;8.60;;;;;;5009881;28;20487;-67
2022/04/16 12:55:03;;;;;;;16.77;12.93;;;35.60;8.70;;;;;;5010776;28;20507;-68
2022/04/16 12:57:28;;;;;;;13.80;10.73;;;36.90;8.70;;;;;;5010583;28;20045;-68
2022/04/16 12:59:54;;;;;;;18.55;12.00;;;36.70;8.90;;;;;;5010180;28;20069;-66